今日のアクセス数

    岡山グライダークラブ活動状況掲示板あなたは無料カウンター人目の訪問者です

岡山グライダークラブ
岡山市浦安南町639-1 岡南飛行場
 使用機:シャイベ式 SF25C型 ファルケ   JA2330
      ヴァレンティン式17E型 タイフーン  JA2342
 練習日:毎日曜日  クラブルーム:電話 086-265-1810
この掲示板は岡山グライダークラブの活動状況をお知らせする掲示板です。
!!!この掲示板は投稿規制をしています。!!!
クラブ関連各種情報は 岡山グライダークラブクラブルーム      を       .
  ブリーフイング情報は  岡山グライダークラブブリーフィングルーム  をご覧下さい。 .
※写真はクリックすると拡大して見ることが出来ます。
岡南飛行場へのアクセス等は 岡南飛行場管理事務所 をご覧ください。
クラブの ホームページ ができました。

ページ 1 (1〜10)ホームページへ戻る

01月12日
by OGC at 2020/1/12(日) 21:04:14 No.20200112210234 コメント】  削除 引用
1477 x 1108 x 133,199バイト <この画像は大きいので別画面で表示します>
No.1

01月12日
本日の参加者
  会員      15名
  その他      0名


@本日の様子





METAR
RJBK 120000Z 05003KT 020V090 10KM FEW010CU SCT050DC BKN070AC 06/04 Q1012 A2990
RJOB 120000Z 36002KT 9999 FEW003 SCT008 BKN070 05/04 Q1011
RJOT 120000Z 21003KT 9999 FEW020 SCT045 BKN090 07/04 Q1012
RJOA 120000Z VRB01KT 9999 FEW025 SCT060 BKN080 07/M00 Q1011
TAF
RJOB 112308Z 1200/1306 27004KT 9999 FEW015 BKN045
RJOT 112309Z 1200/1306 28007KT 9999 FEW020 BKN050
RJOA 112305Z 1200/1306 28005KT 9999 FEW025 BKN040

本日は、霧雨が時々降るあいにくの天気でしたが、いつも通り、訓練フライトを行いました。


解散    17:00

1番機  11:30離陸 撤収機  16:35着陸 

SF25C JA2330 ファルケ     10Flt.3h00min  
17E   JA2342 タイフーン    04Flt.1h15min  
合計                    14Flt.4h15min
01月05日
by OGC at 2020/1/5(日) 19:33:12 No.20200105192826 コメント】  削除 引用
1024 x 768 x 91,538バイト
No.1

01月05日
本日の参加者
  会員      14名
  その他      0名


@本日の様子





METAR
RJOB 050000Z 31004KT 260V360 9999 FEW020 BKN050 05/M02 Q1027
RJOT 050000Z 25005KT 9999 FEW025 SCT060 04/01 Q1028
RJOA 050000Z 25003KT 9999 FEW015 05/M02 Q1027
TAF
RJOB  042305Z 0500/0606 35007KT 9999 FEW025 BKN040
     BECMG 0603/0606 21004KT
RJOT  042310Z 0500/0606 32007KT 9999 FEW025 SCT050
     BECMG 0507/0509 15005KT
RJOA  042308Z 0500/0606 35008KT 9999 FEW030
     BECMG 0507/0509 06006KT

新年あけましておめでとうございます。
今年も安全第一で活動してまいりますのでよろしくお願いします。
本日は晴れで、風は横風ですが、横風着陸の練習日和ってことで、いつも通りTGL訓練を行いました。


解散    17:20

1番機  10:55離陸 撤収機  16:55着陸 

SF25C JA2330 ファルケ     12Flt.2h55min  
17E   JA2342 タイフーン    00Flt.0h00min  
合計                    12Flt.2h55min

12月22日
by OGC at 2019/12/23(月) 00:02:40 No.20191222235953 コメント】  削除 引用
1477 x 1108 x 70,101バイト <この画像は大きいので別画面で表示します>
No.1

12月22日
本日の参加者
  会員      14名
  その他      0名


@本日の様子





METAR
RJBK 220000Z VRB01KT 20KM FEW035CU SCT120AC BKN150AC 06/02 Q1021 A3017
RJOB 220000Z VRB02KT 9999 FEW020 SCT120 BKN130 06/01 Q1020
RJOT 220000Z 10003KT 070V130 9999 FEW020 SCT030 BKN110 07/05 Q1020
RJOA 220000Z 07006KT 030V100 9999 FEW030 BKN070 06/M03 Q1021
TAF
RJOB  212309Z 2200/2306 03004KT 9999 FEW020 SCT045
         BECMG 2215/2218 30005KT
RJOT  212307Z 2200/2306 07007KT 9999 -RA FEW015 SCT030 BKN060
         TEMPO 2209/2212 4000 -RA BR FEW002 BKN008 BKN015
         BECMG 2212/2215 21005KT
RJOA  212305Z 2200/2306 08008KT 9999 FEW025
         BECMG 2210/2212 32004KT

本日は高知沖の前線を伴った低気圧の影響があり、午後から小雨になりました。
ファルケは通常の訓練フライト、格納庫では大掃除を行い、年越し準備も完了しました。
[お知らせ]12月は年会費納入月間です。まだの方は振り込みをお願いします。

解散    17:20

1番機  11:10離陸 撤収機  14:55着陸 

SF25C JA2330 ファルケ     06Flt.2h15min  
17E   JA2342 タイフーン    00Flt.0h00min  
合計                    06Flt.2h15min

12月15日
by OGC at 2019/12/15(日) 22:30:39 No.20191215222619 コメント】  削除 引用
1024 x 768 x 83,955バイト
No.1

12月15日
本日の参加者
  会員      14名
  その他      0名


@本日の様子




METAR
RJBK 150000Z 20003KT 170V240 25KM FEW015CU SCT040CU BKN060SC 07/03 Q1030 A3042
RJOB 150000Z 02008KT 340V050 9999 FEW025 08/M00 Q1029
RJOT 150000Z 14004KT 9999 FEW025 SCT/// 07/04 Q1029
RJOA 150000Z 05009KT 9999 FEW025 06/M03 Q1029
TAF
RJOB  142306Z 1500/1606 04006KT 9999 FEW025
RJOT  142305Z 1500/1606 05007KT 9999 FEW025
RJOA  142306Z 1500/1606 13006KT 9999 FEW030

本日は高気圧に覆われ快晴、先週、集まった会員が多かったこともあり、今週はちょっと少な目です。
ファルケは通常の訓練フライト、一方、タイフーンは剣山の雪化粧を見に行っていました。
[お知らせ]12月は年会費納入月間です。まだの方は振り込みをお願いします。

解散    17:20

1番機  10:40離陸 撤収機  16:45着陸 

SF25C JA2330 ファルケ     10Flt.3h40min  
17E   JA2342 タイフーン    01Flt.1h40min  
合計                    11Flt.5h20min
12月08日
by OGC at 2019/12/8(日) 21:15:51 No.20191208211350 コメント】  削除 引用
1024 x 768 x 66,245バイト
No.1

12月01日
本日の参加者
  会員      18名
  その他      2名


@本日の様子




METAR
RJBK 080000Z VRB02KT 30KM FEW025CU BKN060SC 05/02 Q1026 A3031
RJOB 080000Z 29001KT 9999 FEW020 BKN050 07/00 Q1025
RJOT 080000Z 23006KT 9999 FEW025 SCT050 09/02 Q1025
RJOA 080000Z 06004KT 9999 FEW020 BKN045 07/M03 Q1025
TAF
RJOB  072309Z 0800/0906 30006KT 9999 FEW025 SCT045
         BECMG 0800/0802 35005KT
         BECMG 0903/0906 23005KT
RJOT  072311Z 0800/0906 24004KT 9999 FEW025
         BECMG 0803/0805 01005KT
RJOA  072310Z 0800/0906 02004KT 9999 FEW025 SCT045
         BECMG 0900/0903 20005KT

本日は、早朝は曇り空でしたが、昼前から晴れ風もほとんどなく、絶好の訓練日和で、沢山の会員が集まり、近年最高記録を更新しました。
ファルケは50時間点検の最終確認後、通常の訓練フライトを再開し、タイフーンと2機で通常の訓練フライトを開始しました。
珍しくファルケとタイフーンのフライト回数が各8回、フライト時間も各3時間05分。何かいいことあるのかな?

解散    17:20

1番機  11:10離陸 撤収機  16:40着陸 

SF25C JA2330 ファルケ     08Flt.3h05min  
17E   JA2342 タイフーン    08Flt.3h05min  
合計                    16Flt.6h10min
12月01日
by OGC at 2019/12/1(日) 22:47:03 No.20191201224558 コメント】  削除 引用
1477 x 1108 x 115,354バイト <この画像は大きいので別画面で表示します>
No.1

12月01日
本日の参加者
  会員      13名
  その他      0名


@本日の様子




METAR
RJBK 010000Z VRB02KT 9999 FEW015AC 05/02 Q1012 A3033
RJOB 010000Z 08003KT 9999 FEW009 BKN140 08/03 Q1026
RJOT 010000Z VRB02KT 9999 FEW020 09/04 Q1026
RJOA 010000Z 09004KT 8060V130 9999 FEW020 SCT070 08/00 Q1025
TAF
RJOB  302313Z 0100/0206 07005KT 9999 FEW015 SCT030
         TEMPO 0115/0121 2000 SHRA BR BCFG FEW000 BKN008 BKN015
         BECMG 0121/0200 30009KT
         TEMPO 0121/0200 2000 BR BCFG FEW000 SCT006 BKN008
RJOT 302311Z 0100/0206 04005KT 9999 FEW025 SCT050
         BECMG 0118/0121 25010KT
         TEMPO 0118/0200 3000 SHRA BR FEW001 SCT003 BKN005
RJOA 302306Z 0100/0206 15005KT 9999 FEW020 SCT040
         BECMG 0112/0115 3000 -SHRA BR BCFG FEW000 SCT005 BKN009
         TEMPO 0115/0121 0900 SHRA FG FEW000 SCT003 BKN005
         BECMG 0121/0200 30013KT 9999 NSW FEW015 BKN030

本日は、紅葉を見に小豆島の寒霞渓へ行っていたり、ナビ訓練に出たりしていたようです。

解散    17:20

1番機  10:45離陸 撤収機  12:50着陸 

SF25C JA2330 ファルケ     03Flt.1h35min  
17E   JA2342 タイフーン    01Flt.0h40min  
合計                    04Flt.2h15min
11月24日
by OGC at 2019/11/25(月) 00:45:15 No.20191125003902 コメント】  削除 引用
1024 x 768 x 65,635バイト
No.1

11月24日
本日の参加者
  会員      14名
  その他      0名


@本日の様子




METAR
RJOB 240000Z VRB01KT 9999 PRFG FEW000 BKN/// 13/11 Q1021
RJOT 240000Z 13004KT 090V160 9999 FEW005 BKN/// 14/12 Q1021
RJOA 240000Z VRB02KT 8000 NSC 13/09 Q1022
TAF
RJOB 232305Z 2400/2506 20004KT 9999 FEW030
         BECMG 2418/2421 4000 -RA BR FEW003 BKN008 BKN015
         TEMPO 2421/2503 1500 RA BR BCFG FEW000 SCT003 BKN005
         BECMG 2503/2506 01011KT 9999 NSW FEW025 BKN045
RJOT 232313Z 2400/2506 05004KT 9999 FEW025
         BECMG 2415/2418 25005KT 4000 -SHRA BR FEW001 SCT005 BKN008
         TEMPO 2418/2500 1500 -SHRA BR BCFG FEW000 SCT003 BKN005
         BECMG 2503/2506 02006KT 9000 -SHRA FEW005 SCT010 BKN030
RJOA 232305Z 2400/2506 12004KT 9999 FEW020 SCT045
         BECMG 2410/2412 4000 -RA BR FEW002 SCT004 BKN008
         TEMPO 2418/2500 1500 -SHRA BR BCFG FEW000 SCT003 BKN005
         BECMG 2500/2503 32008KT 9000 NSW FEW005 SCT015 BKN040

本日は、笠岡ふれあい空港のイベントに参加するため2機とも11時前に離陸しましたが、雲が多くすぐさま引き返してきました。
本日の訓練は、飛行場から離れられずTGLの連続、ライセンサーはフライトを諦めていました。

解散    17:20

1番機  10:50離陸 撤収機  16:45着陸 

SF25C JA2330 ファルケ     13Flt.2h35min  
17E   JA2342 タイフーン    01Flt.0h15min  
合計                    14Flt.2h50min
11月17日
by OGC at 2019/11/17(日) 20:38:25 No.20191117203436 コメント】  削除 引用
1024 x 768 x 117,567バイト
No.1

11月17日
本日の参加者
  会員      16名
  その他      0名


@本日の様子




METAR
RJBK 162300Z VRB02KT 25KM FEW020CU SCT070AC BKN/// 9/8 Q1024 A3025
RJOB 162300Z VRB02KT 9999 FEW020 SCT050 BKN/// 11/09 Q1023
RJOT 162300Z 14008KT 9999 FEW025 SCT/// 11/09 Q1024
RJOA 162300Z 00000KT 9999 BCFG FEW000 SCT/// 12/07 Q1023
TAF
RJOB 162308Z 1700/1806 12005KT 9999 FEW020
       BECMG 1800/1803 21008KT
RJOT 162308Z 1700/1806 06006KT 9999 FEW025
       BECMG 1721/1800 24009KT
RJOA 162306Z 1700/1806 14006KT 9999 FEW020
       BECMG 1721/1800 21010KT

本日、岡南飛行場祭りでデモフライト、機体展示を行い、多くの来場者の方に喜んで頂けました。たぶん...
祭り後、いつもの訓練フライトを手短に行い、またまた、日没ギリギリまで飛んでしまいました。

解散    17:20

1番機  09:50離陸 撤収機  16:55着陸 

SF25C JA2330 ファルケ     06Flt.1h35min  
17E   JA2342 タイフーン    04Flt.1h15min  
合計                    10Flt.2h50min
11月10日
by OGC at 2019/11/10(日) 20:28:01 No.20191110202601 コメント】  削除 引用
1024 x 768 x 83,360バイト
No.1

11月10日
本日の参加者
  会員      15名
  その他      1名


@本日の様子




METAR
RJBK 100000Z 34003KT 290V020 30KM FEW035CU 13/10 Q1018 A3006
RJOB 100000Z 09003KT 010V160 9999 FEW020 13/06 Q1017
RJOT 100000Z 11003KT 020V180 9999 FEW020 SCT030 13/09 Q1017
RJOA 100000Z 07008KT 9999 FEW020 SCT/// 12/03 Q1017
TAF
RJOB 092305Z 1000/1106 06007KT 9999 FEW020
     BECMG 1021/1100 24014KT
RJOT 092308Z 1000/1106 05008KT 9999 FEW025
     BECMG 1021/1100 26017KT
     TEMPO 1100/1106 26020G30KT
RJOA 092306Z 1000/1106 16005KT 9999 FEW025 SCT045
     BECMG 1018/1021 25012KT

本日、地上では岡山マラソンがあり大勢のランナーが吉備路を楽しんでいました。
上空では、ソロ経験者がナビ訓練を開始し、上空での忙しさにビックリしていました。
また、タイフーンは剣山を目指しナビ訓練に出ましたが、剣山がよく分からなかったようです。

解散    17:30

1番機  10:20離陸 撤収機  16:35着陸 

SF25C JA2330 ファルケ     09Flt.3h45min  
17E   JA2342 タイフーン    07Flt.3h35min  
合計                    16Flt.7h20min
11月03日
by OGC at 2019/11/4(月) 00:15:36 No.20191104000939 コメント】  削除 引用
1477 x 1108 x 45,173バイト <この画像は大きいので別画面で表示します>
No.1

11月03日
本日の参加者
  会員      13名
  その他      0名


@本日の様子




METAR
RJBK 030000Z VRB01KT 25KM FEW025CU SCT060SC BKN/// 14/10 Q1017 A3005
RJOB 030000Z VRB01KT 9999 FEW020 BKN160 14/10 Q1017
RJOT 030000Z VRB01KT 9999 FEW030 SCT060 BKN180 16/13 Q1017
RJOA 030000Z VRB02KT 9999 FEW020 SCT170 BKN/// 15/08 Q1018
TAF
RJOB 022312Z 0300/0406 02004KT 9999 FEW025
     BECMG 0300/0302 23005KT
     BECMG 0308/0310 36004KT
RJOT 022309Z 0300/0406 28006KT 9999 FEW030
     BECMG 0321/0400 03005KT
RJOA 022306Z 0300/0406 30005KT 9999 FEW025 SCT040
     BECMG 0315/0318 02006KT

本日は、曇りで雨までは降らないと予想していましたが昼頃から小雨、雨の合間に
何時もの訓練フライトと飛行場祭りのデモフライトの訓練を行いました。
また、最近、日没時間に比例して訓練生が集まる時間も早くなる法則を発見しました。

解散    17:30

1番機  10:15離陸 撤収機  17:05着陸 

SF25C JA2330 ファルケ     09Flt.2h35min  
17E   JA2342 タイフーン    02Flt.0h45min  
合計                    11Flt.3h20min
ホームページへ 全 49 件 [ 1 2 3 4 5 ]

モータースポーツ | 管理者へメール | お知らせ | 一括削除
携帯から使う方法 | ヘルプ | 利用規約 | 違反報告 | 管理パネル



- 無料レンタル掲示板 -